createdAt,value
2018-01-22T00:01:57.535Z,98296.17
2018-01-22T00:04:23.862Z,98298.97
2018-01-22T00:06:50.029Z,98296.17
2018-01-22T00:09:16.191Z,98305.52
2018-01-22T00:11:42.399Z,98298.75
2018-01-22T00:14:08.617Z,98308.39
2018-01-22T00:16:34.899Z,98311.08
2018-01-22T00:19:01.094Z,98303.22
2018-01-22T00:21:27.426Z,98301.17
2018-01-22T00:23:53.982Z,98300.45
2018-01-22T00:26:20.158Z,98310.77
2018-01-22T00:28:46.375Z,98308.37
2018-01-22T00:31:12.595Z,98319.13
2018-01-22T00:33:38.891Z,98308.74
2018-01-22T00:36:05.087Z,98311.17
2018-01-22T00:38:31.347Z,98312.94
2018-01-22T00:40:57.643Z,98315.44
2018-01-22T00:43:23.923Z,98317.61
2018-01-22T00:45:50.182Z,98318.16
2018-01-22T00:48:16.407Z,98326.63
2018-01-22T00:50:42.744Z,98329.41
2018-01-22T00:53:08.967Z,98334.14
2018-01-22T00:55:35.274Z,98335.19
2018-01-22T00:58:01.483Z,98332.75
2018-01-22T01:00:27.748Z,98339.48
2018-01-22T01:02:54.063Z,98341.73
2018-01-22T01:05:20.271Z,98341.64
2018-01-22T01:07:46.423Z,98340.97
2018-01-22T01:10:12.644Z,98352.06
2018-01-22T01:12:38.895Z,98347.37
2018-01-22T01:15:05.086Z,98344.94
2018-01-22T01:17:31.334Z,98342.33
2018-01-22T01:19:57.519Z,98352.21
2018-01-22T01:22:23.770Z,98352.74
2018-01-22T01:24:50.046Z,98356.66
2018-01-22T01:27:16.263Z,98353.52
2018-01-22T01:29:42.475Z,98357.36
2018-01-22T01:32:09.087Z,98359.77
2018-01-22T01:34:35.258Z,98361.73
2018-01-22T01:37:01.459Z,98364.05
2018-01-22T01:39:27.798Z,98358.96
2018-01-22T01:41:53.995Z,98365.64
2018-01-22T01:44:20.239Z,98364.59
2018-01-22T01:46:46.532Z,98357.08
2018-01-22T01:49:12.819Z,98367.90
2018-01-22T01:51:39.052Z,98359.14
2018-01-22T01:54:05.323Z,98359.91
2018-01-22T01:56:31.543Z,98363.59
2018-01-22T01:58:57.759Z,98361.58
2018-01-22T02:01:23.935Z,98363.47
2018-01-22T02:03:50.193Z,98364.77
2018-01-22T02:06:16.388Z,98363.03
2018-01-22T03:17:14.378Z,98357.05
2018-01-22T03:19:40.577Z,98359.88
2018-01-22T03:22:06.773Z,98362.66
2018-01-22T03:24:33.022Z,98376.41
2018-01-22T03:26:59.287Z,98369.52
2018-01-22T03:29:25.505Z,98369.22
2018-01-22T03:31:51.846Z,98374.33
2018-01-22T03:34:18.063Z,98380.75
2018-01-22T03:36:44.270Z,98372.22
2018-01-22T03:39:10.542Z,98366.88
2018-01-22T03:41:36.810Z,98385.92
2018-01-22T03:44:03.015Z,98386.87
2018-01-22T04:17:10.799Z,98393.42
2018-01-22T04:19:36.966Z,98403.53
2018-01-22T04:22:03.173Z,98414.23
2018-01-22T04:24:29.417Z,98403.20
2018-01-22T04:26:55.638Z,98402.16
2018-01-22T04:29:21.931Z,98417.34
2018-01-22T04:31:48.123Z,98414.16
2018-01-22T04:34:14.347Z,98417.43
2018-01-22T04:36:40.602Z,98423.98
2018-01-22T04:39:06.804Z,98433.13
2018-01-22T04:41:33.221Z,98436.59
2018-01-22T04:43:59.503Z,98448.24
2018-01-22T04:46:25.759Z,98446.57
2018-01-22T04:48:51.974Z,98461.15
2018-01-22T04:51:18.247Z,98458.33
2018-01-22T04:53:44.446Z,98466.98
2018-01-22T04:56:10.598Z,98476.23
2018-01-22T04:58:36.875Z,98480.22
2018-01-22T05:01:03.166Z,98478.41
2018-01-22T05:03:29.687Z,98482.09
2018-01-22T06:05:45.246Z,98533.16
2018-01-22T06:08:11.411Z,98532.03
2018-01-22T06:10:37.806Z,98538.44
2018-01-22T06:13:04.071Z,98536.28
2018-01-22T06:15:30.484Z,98532.39
2018-01-22T06:17:56.696Z,98530.30
2018-01-22T06:20:22.898Z,98528.66
2018-01-22T06:22:49.110Z,98526.17
2018-01-22T06:25:15.300Z,98530.82
2018-01-22T06:27:41.515Z,98537.22
2018-01-22T06:30:07.735Z,98551.38
2018-01-22T06:32:33.899Z,98548.75
2018-01-22T06:35:00.122Z,98551.35
2018-01-22T06:37:26.382Z,98554.10
2018-01-22T06:39:52.622Z,98554.98
2018-01-22T06:42:18.886Z,98557.93
2018-01-22T06:44:45.189Z,98559.16
2018-01-22T06:47:11.455Z,98548.80
2018-01-22T06:49:37.734Z,98565.98
2018-01-22T06:52:04.220Z,98556.52
2018-01-22T06:54:30.754Z,98549.59
2018-01-22T06:56:56.965Z,98562.53
2018-01-22T06:59:23.238Z,98547.80
2018-01-22T07:01:49.453Z,98554.48
2018-01-22T07:04:15.651Z,98560.06
2018-01-22T07:06:41.879Z,98565.88
2018-01-22T07:09:08.182Z,98562.16
2018-01-22T07:11:34.363Z,98575.41
2018-01-22T07:14:00.696Z,98582.90
2018-01-22T07:16:26.956Z,98582.23
2018-01-22T07:18:53.259Z,98587.84
2018-01-22T07:21:19.580Z,98584.97
2018-01-22T07:23:45.785Z,98592.30
2018-01-22T08:17:15.995Z,98623.91
2018-01-22T08:19:42.155Z,98619.70
2018-01-22T08:22:08.383Z,98620.49
2018-01-22T08:24:34.707Z,98627.35
2018-01-22T08:27:00.944Z,98624.73
2018-01-22T08:29:27.278Z,98636.98
2018-01-22T08:31:53.483Z,98632.16
2018-01-22T08:34:19.716Z,98643.44
2018-01-22T08:36:46.039Z,98638.86
2018-01-22T08:39:12.335Z,98652.03
2018-01-22T08:41:38.500Z,98638.02
2018-01-22T08:44:04.741Z,98643.75
2018-01-22T08:46:30.902Z,98652.55
2018-01-22T08:48:57.111Z,98656.48
2018-01-22T08:51:23.395Z,98665.61
2018-01-22T08:53:49.630Z,98654.58
2018-01-22T08:56:15.913Z,98667.69
2018-01-22T08:58:42.226Z,98672.06
2018-01-22T09:01:08.396Z,98673.45
2018-01-22T09:03:34.574Z,98669.56
2018-01-22T09:06:00.802Z,98673.38
2018-01-22T09:08:27.134Z,98670.55
2018-01-22T09:10:53.335Z,98663.51
2018-01-22T09:13:19.590Z,98665.45
2018-01-22T09:15:45.859Z,98660.00
2018-01-22T09:18:12.055Z,98671.85
2018-01-22T09:20:38.349Z,98677.29
2018-01-22T09:23:04.663Z,98661.35
2018-01-22T09:25:30.831Z,98668.19
2018-01-22T09:27:57.062Z,98674.33
2018-01-22T09:30:23.290Z,98666.59
2018-01-22T09:32:49.518Z,98668.09
2018-01-22T09:35:15.699Z,98665.99
2018-01-22T09:37:41.986Z,98663.66
2018-01-22T09:40:08.200Z,98668.26
2018-01-22T09:42:34.442Z,98662.33
2018-01-22T09:45:00.711Z,98673.18
2018-01-22T09:47:27.038Z,98671.17
2018-01-22T09:49:53.236Z,98662.06
2018-01-22T09:52:19.555Z,98665.95
2018-01-22T09:54:45.771Z,98674.65
2018-01-22T09:57:12.007Z,98664.84
2018-01-22T09:59:38.243Z,98663.31
2018-01-22T10:02:04.426Z,98676.91
2018-01-22T10:04:30.686Z,98680.75
2018-01-22T10:06:56.967Z,98689.23
2018-01-22T10:09:23.219Z,98685.28
2018-01-22T10:11:49.527Z,98686.39
2018-01-22T10:14:15.711Z,98688.10
2018-01-22T10:16:41.947Z,98693.09
2018-01-22T10:19:08.239Z,98683.10
2018-01-22T10:21:34.498Z,98686.08
2018-01-22T10:24:00.948Z,98682.69
2018-01-22T10:26:27.500Z,98691.31
2018-01-22T10:28:53.670Z,98712.25
2018-01-22T10:31:19.984Z,98691.63
2018-01-22T10:33:46.294Z,98706.08
2018-01-22T10:36:12.508Z,98699.22
2018-01-22T10:38:38.760Z,98708.05
2018-01-22T10:41:05.014Z,98701.42
2018-01-22T10:43:31.242Z,98711.54
2018-01-22T10:45:57.498Z,98713.06
2018-01-22T10:48:23.807Z,98702.36
2018-01-22T10:50:49.999Z,98708.16
2018-01-22T10:53:16.286Z,98715.00
2018-01-22T10:55:42.523Z,98709.78
2018-01-22T10:58:08.803Z,98708.61
2018-01-22T11:00:35.078Z,98719.05
2018-01-22T11:03:01.348Z,98721.07
2018-01-22T11:05:27.560Z,98718.87
2018-01-22T11:07:53.843Z,98727.02
2018-01-22T11:10:20.117Z,98733.44
2018-01-22T11:12:46.278Z,98729.91
2018-01-22T11:15:12.546Z,98730.63
2018-01-22T11:17:38.905Z,98743.55
2018-01-22T11:20:05.178Z,98731.09
2018-01-22T11:22:31.423Z,98737.72
2018-01-22T11:24:57.671Z,98741.52
2018-01-22T11:27:23.925Z,98732.66
2018-01-22T11:29:50.259Z,98743.15
2018-01-22T11:32:16.559Z,98739.31
2018-01-22T11:34:42.767Z,98743.39
2018-01-22T11:37:09.039Z,98737.93
2018-01-22T11:39:35.369Z,98754.52
2018-01-22T11:42:01.552Z,98748.98
2018-01-22T11:44:27.864Z,98745.55
2018-01-22T11:46:54.122Z,98751.94
2018-01-22T11:49:20.389Z,98758.78
2018-01-22T11:51:46.656Z,98753.67
2018-01-22T11:54:12.851Z,98753.14
2018-01-22T11:56:39.080Z,98750.29
2018-01-22T11:59:05.379Z,98757.72
2018-01-22T12:01:31.563Z,98758.66
2018-01-22T12:03:57.734Z,98768.27
2018-01-22T12:06:23.951Z,98763.79
2018-01-22T12:08:50.195Z,98765.50
2018-01-22T12:11:16.506Z,98760.01
2018-01-22T12:13:42.788Z,98761.95
2018-01-22T12:16:09.056Z,98766.14
2018-01-22T12:18:35.487Z,98762.06
2018-01-22T12:21:01.720Z,98764.32
2018-01-22T12:23:27.983Z,98769.66
2018-01-22T12:25:54.476Z,98783.50
2018-01-22T12:28:20.788Z,98787.26
2018-01-22T12:30:47.025Z,98778.77
2018-01-22T12:33:13.238Z,98783.98
2018-01-22T12:35:39.527Z,98791.66
2018-01-22T12:38:05.727Z,98796.69
2018-01-22T12:40:31.971Z,98788.44
2018-01-22T12:42:58.219Z,98789.44
2018-01-22T12:45:24.446Z,98798.58
2018-01-22T12:47:51.149Z,98794.27
2018-01-22T12:50:17.427Z,98802.92
2018-01-22T12:52:43.594Z,98801.33
2018-01-22T12:55:09.797Z,98809.66
2018-01-22T12:57:36.071Z,98813.95
2018-01-22T13:00:02.445Z,98815.12
2018-01-22T13:02:28.696Z,98822.52
2018-01-22T13:04:54.912Z,98822.50
2018-01-22T13:07:21.255Z,98825.95
2018-01-22T13:09:47.675Z,98834.80
2018-01-22T13:12:13.955Z,98846.03
2018-01-22T13:14:40.303Z,98842.63
2018-01-22T13:17:06.525Z,98851.31
2018-01-22T13:19:32.759Z,98858.50
2018-01-22T13:21:59.091Z,98864.23
2018-01-22T13:24:25.382Z,98870.78
2018-01-22T13:26:51.628Z,98875.47
2018-01-22T13:29:17.830Z,98878.76
2018-01-22T13:31:44.131Z,98875.47
2018-01-22T13:34:12.237Z,98881.89
2018-01-22T13:36:39.977Z,98897.09
2018-01-22T13:39:06.975Z,98893.69
2018-01-22T13:41:34.643Z,98900.34
2018-01-22T13:44:04.314Z,98895.37
2018-01-22T13:46:31.005Z,98895.66
2018-01-22T13:48:57.252Z,98909.70
2018-01-22T13:51:23.469Z,98912.55
2018-01-22T13:53:49.864Z,98907.20
2018-01-22T13:56:16.673Z,98926.61
2018-01-22T13:58:43.882Z,98929.45
2018-01-22T14:01:10.418Z,98929.48
2018-01-22T14:03:36.774Z,98941.22
2018-01-22T14:06:03.726Z,98940.39
2018-01-22T14:08:30.924Z,98943.08
2018-01-22T14:10:57.459Z,98950.83
2018-01-22T14:13:24.240Z,98957.86
2018-01-22T14:15:50.728Z,98955.11
2018-01-22T14:18:16.991Z,98965.05
2018-01-22T14:20:43.375Z,98979.56
2018-01-22T14:23:09.655Z,98972.28
2018-01-22T14:25:35.963Z,98984.23
2018-01-22T14:28:02.264Z,98991.66
2018-01-22T14:30:28.634Z,98999.16
2018-01-22T14:32:55.121Z,99008.05
2018-01-22T14:35:21.413Z,99014.73
2018-01-22T14:37:47.767Z,99019.25
2018-01-22T14:40:14.068Z,99031.70
2018-01-22T14:42:40.398Z,99038.53
2018-01-22T14:45:06.639Z,99035.23
2018-01-22T14:47:32.961Z,99039.44
2018-01-22T14:49:59.320Z,99045.48
2018-01-22T14:52:25.530Z,99049.09
2018-01-22T14:54:51.905Z,99056.19
2018-01-22T14:57:18.431Z,99060.37
2018-01-22T14:59:44.651Z,99063.34
2018-01-22T15:02:10.943Z,99068.47
2018-01-22T15:04:37.213Z,99072.45
2018-01-22T15:17:47.962Z,99105.12
2018-01-22T15:20:14.330Z,99103.69
2018-01-22T15:22:41.063Z,99114.18
2018-01-22T16:06:07.438Z,99203.03
2018-01-22T16:08:33.984Z,99217.84
2018-01-22T16:11:00.710Z,99224.28
2018-01-22T16:13:27.497Z,99232.94
2018-01-22T16:15:56.975Z,99234.34
2018-01-22T16:18:24.104Z,99236.69
2018-01-22T16:20:50.474Z,99237.63
2018-01-22T16:23:17.089Z,99248.67
2018-01-22T16:25:43.442Z,99259.17
2018-01-22T16:28:09.618Z,99267.59
2018-01-22T16:30:35.892Z,99263.78
2018-01-22T16:33:02.095Z,99265.11
2018-01-22T16:35:28.364Z,99269.19
2018-01-22T16:37:54.595Z,99273.05
2018-01-22T16:40:20.811Z,99273.23
2018-01-22T16:42:47.027Z,99283.23
2018-01-22T16:45:13.287Z,99279.33
2018-01-22T17:17:11.694Z,99334.61
2018-01-22T17:19:37.919Z,99342.61
2018-01-22T17:22:04.115Z,99347.16
2018-01-22T17:24:30.480Z,99341.28
2018-01-22T17:26:56.647Z,99353.09
2018-01-22T17:29:22.872Z,99361.19
2018-01-22T17:31:49.105Z,99355.42
2018-01-22T17:34:15.300Z,99352.34
2018-01-22T17:36:41.508Z,99370.02
2018-01-22T17:39:07.695Z,99372.34
2018-01-22T17:41:33.910Z,99386.95
2018-01-22T17:44:00.156Z,99385.31
2018-01-22T17:46:26.677Z,99396.41
2018-01-22T17:48:52.952Z,99398.37
2018-01-22T17:51:19.464Z,99404.73
2018-01-22T17:53:45.704Z,99402.11
2018-01-22T17:56:11.982Z,99411.09
2018-01-22T17:58:38.215Z,99418.12
2018-01-22T18:01:04.423Z,99408.55
2018-01-22T18:03:30.835Z,99412.54
2018-01-22T18:05:57.105Z,99413.48
2018-01-22T18:08:23.282Z,99416.00
2018-01-22T18:10:49.491Z,99429.19
2018-01-22T18:13:15.682Z,99435.36
2018-01-22T18:15:41.917Z,99440.99
2018-01-22T18:18:08.178Z,99439.88
2018-01-22T18:20:34.900Z,99446.27
2018-01-22T18:23:01.163Z,99444.30
2018-01-22T18:25:27.419Z,99455.16
2018-01-22T18:27:53.675Z,99448.23
2018-01-22T18:30:19.864Z,99451.18
2018-01-22T18:32:46.166Z,99454.58
2018-01-22T18:35:12.495Z,99467.40
2018-01-22T18:37:38.710Z,99463.39
2018-01-22T18:40:04.967Z,99456.63
2018-01-22T18:42:31.223Z,99464.39
2018-01-22T18:44:57.492Z,99472.30
2018-01-22T18:47:23.700Z,99472.40
2018-01-22T18:49:57.046Z,99480.02
2018-01-22T18:52:23.250Z,99481.44
2018-01-22T18:54:49.524Z,99478.48
2018-01-22T18:57:15.790Z,99479.12
2018-01-22T18:59:42.012Z,99488.21
2018-01-22T19:02:08.272Z,99485.42
2018-01-22T19:04:34.455Z,99491.06
2018-01-22T19:07:00.695Z,99498.27
2018-01-22T19:09:26.973Z,99499.07
2018-01-22T19:11:53.141Z,99495.59
2018-01-22T19:14:19.355Z,99500.42
2018-01-22T19:16:45.562Z,99504.20
2018-01-22T19:19:11.756Z,99504.02
2018-01-22T19:21:37.967Z,99511.03
2018-01-22T19:24:04.194Z,99507.97
2018-01-22T19:26:30.511Z,99504.84
2018-01-22T19:28:56.802Z,99508.33
2018-01-22T19:31:23.128Z,99507.86
2018-01-22T19:33:49.363Z,99501.16
2018-01-22T19:36:15.582Z,99508.63
2018-01-22T19:38:41.803Z,99507.29
2018-01-22T19:41:08.127Z,99506.82
2018-01-22T20:17:29.302Z,99532.59
2018-01-22T20:19:55.551Z,99544.14
2018-01-22T20:22:21.735Z,99549.67
2018-01-22T20:24:47.935Z,99550.65
2018-01-22T20:27:14.140Z,99549.14
2018-01-22T20:29:40.495Z,99556.19
2018-01-22T20:32:06.788Z,99554.94
2018-01-22T20:34:33.003Z,99552.23
2018-01-22T20:36:59.239Z,99558.91
2018-01-22T20:39:25.667Z,99562.47
2018-01-22T20:41:51.933Z,99564.36
2018-01-22T20:44:18.131Z,99560.55
2018-01-22T20:46:44.447Z,99566.06
2018-01-22T20:49:10.686Z,99565.13
2018-01-22T20:51:36.898Z,99573.61
2018-01-22T20:54:03.063Z,99580.75
2018-01-22T20:56:29.386Z,99574.55
2018-01-22T20:58:55.622Z,99589.31
2018-01-22T21:01:21.863Z,99583.84
2018-01-22T21:03:48.115Z,99589.81
2018-01-22T21:06:14.327Z,99592.98
2018-01-22T21:08:40.547Z,99596.50
2018-01-22T21:11:06.752Z,99600.55
2018-01-22T21:13:33.011Z,99600.84
2018-01-22T21:15:59.191Z,99607.91
2018-01-22T21:18:25.410Z,99604.00
2018-01-22T21:20:51.662Z,99617.89
2018-01-22T21:23:17.870Z,99620.45
2018-01-22T21:25:44.044Z,99629.36
2018-01-22T21:28:10.258Z,99630.10
2018-01-22T21:30:36.501Z,99635.45
2018-01-22T21:33:02.710Z,99638.72
2018-01-22T21:35:28.935Z,99647.58
2018-01-22T21:37:55.123Z,99648.75
2018-01-22T21:40:21.338Z,99653.58
2018-01-22T21:42:47.643Z,99655.05
2018-01-22T21:45:13.803Z,99663.98
2018-01-22T21:47:40.032Z,99658.16
2018-01-22T21:50:06.260Z,99652.98
2018-01-22T21:52:32.466Z,99653.17
2018-01-22T21:54:58.665Z,99653.59
2018-01-22T21:57:24.863Z,99658.11
2018-01-22T21:59:51.146Z,99656.91
2018-01-22T22:02:17.359Z,99654.98
2018-01-22T22:04:43.579Z,99653.98
2018-01-22T22:07:09.806Z,99655.71
2018-01-22T22:09:36.002Z,99649.91
2018-01-22T22:12:02.251Z,99653.68
2018-01-22T22:14:28.482Z,99658.25
2018-01-22T22:16:54.722Z,99653.98
2018-01-22T22:19:20.927Z,99646.75
2018-01-22T22:21:47.131Z,99648.66
2018-01-22T22:24:13.378Z,99648.84
2018-01-22T22:26:39.630Z,99645.86
2018-01-22T22:29:05.793Z,99650.27
2018-01-22T22:31:32.031Z,99650.81
2018-01-22T22:33:58.211Z,99654.20
2018-01-22T22:36:24.443Z,99652.67
2018-01-22T22:38:50.664Z,99652.48
2018-01-22T22:41:16.972Z,99660.08
2018-01-22T22:43:43.227Z,99660.39
2018-01-22T22:46:09.419Z,99664.95
2018-01-22T22:48:35.587Z,99671.38
2018-01-22T22:51:01.810Z,99671.89
2018-01-22T22:53:27.982Z,99675.92
2018-01-22T22:55:54.126Z,99680.30
2018-01-22T22:58:20.379Z,99679.84
2018-01-22T23:00:46.631Z,99688.42
2018-01-22T23:03:12.826Z,99692.89
2018-01-22T23:05:39.110Z,99689.96
2018-01-22T23:08:05.298Z,99695.72
2018-01-22T23:10:31.482Z,99696.41
2018-01-22T23:12:57.721Z,99704.17
2018-01-22T23:15:23.947Z,99706.23
2018-01-22T23:17:50.126Z,99697.87
2018-01-22T23:20:16.368Z,99702.75
2018-01-22T23:22:42.551Z,99707.52
2018-01-22T23:25:08.790Z,99712.30
2018-01-22T23:27:34.990Z,99710.45
2018-01-22T23:30:01.254Z,99711.22
2018-01-22T23:32:27.474Z,99715.22
2018-01-22T23:34:53.744Z,99718.15
2018-01-22T23:37:19.949Z,99718.86
2018-01-22T23:39:46.187Z,99719.23
2018-01-22T23:42:12.403Z,99717.98
2018-01-22T23:44:38.587Z,99726.01
2018-01-22T23:47:04.810Z,99724.00
2018-01-22T23:49:31.167Z,99725.87
2018-01-22T23:51:57.366Z,99727.25
2018-01-22T23:54:23.662Z,99727.48
2018-01-22T23:56:49.947Z,99736.59
2018-01-22T23:59:16.186Z,99740.66
